Weather observations for the past three days for
Moline Quad-City Airport
Metric (Imperial)
Date Time (cdt) Wind (kph) Vis. (km) Weather Sky Cond. Temperature (ºC) Relative Humidity Wind Chill (°C) Heat Index (°C) Pressure Precipitation (cm)
Air Dwpt 6 hour altimeter (cm) sea level (mb) 1 hr 3 hr 6 hr
Max. Min.
01 22:52 S 11 16.09 Fair CLR 26.7 21.7 74% 29 76.02 1013.1
01 21:52 S 13 16.09 Fair CLR 27.8 22.2 72% 30 76.02 1013.1
01 19:52 S 9 16.09 Fair CLR 28.3 23.9 77% 32 75.97 1012.5
01 18:52 S 7 16.09 Fair CLR 30.6 25 35 30.6 72% 37 76 1012.5
01 17:52 SW 7 16.09 Fair CLR 33.3 22.2 52% 38 76 1012.6
01 16:52 SW 9 16.09 Fair CLR 34.4 23.3 52% 40 76 1012.7
01 14:52 SW 19 16.09 Fair CLR 34.4 22.2 49% 39 76.02 1013.1
01 13:52 SW 13 16.09 Fair CLR 33.9 22.8 52% 39 76.07 1013.5
01 12:52 SW 11 16.09 Fair CLR 33.3 23.3 33.3 23.9 56% 39 76.1 1013.9
01 11:52 SW 13 16.09 Fair CLR 32.2 23.9 62% 38 76.12 1014.3
01 10:52 S 7 16.09 Fair CLR 30.6 23.9 67% 36 76.12 1014.3
01 09:52 S 9 16.09 Fair CLR 28.9 23.3 72% 33 76.15 1014.5
01 08:52 SW 7 16.09 Fair CLR 27.2 22.8 77% 30 76.15 1014.6
01 07:52 SE 6 16.09 A Few Clouds FEW120 25 22.8 88% 26 76.15 1014.6
01 06:52 Calm 16.09 Fair CLR 24.4 21.7 26.7 23.3 85% 25 76.1 1014.1
01 04:52 Calm 16.09 Fair CLR 23.3 21.7 91% 76.05 1013.2
01 03:52 Calm 16.09 Fair CLR 25.6 22.2 82% 27 76.05 1013.1
01 02:52 Calm 16.09 Fair CLR 25.6 22.8 85% 27 76.05 1013.2
01 01:52 S 6 16.09 Fair CLR 23.3 22.2 94% 76.05 1013.2
01 00:52 NW 6 16.09 Fair CLR 26.1 22.8 30 24.4 82% 28 76.05 1013.3
31 23:52 Calm 16.09 Fair CLR 26.1 22.8 82% 28 76.02 1012.8
31 22:52 Calm 16.09 Fair CLR 25 22.8 88% 26 76.02 1012.8
31 21:52 Calm 16.09 Fair CLR 25 23.3 90% 26 76.02 1012.9
31 20:52 SW 6 16.09 Fair CLR 26.7 23.9 85% 29 76 1012.5
31 19:52 S 7 16.09 Fair CLR 27.2 24.4 85% 31 75.95 1012.0
31 18:52 S 7 16.09 Fair CLR 30 24.4 32.8 30 72% 36 75.95 1012.0
31 17:52 SW 7 16.09 Fair CLR 31.1 23.9 66% 37 75.95 1011.8
31 16:52 S 9 16.09 Fair CLR 31.7 23.9 63% 37 75.95 1011.8
31 15:52 SW 17 16.09 Fair CLR 31.7 22.8 59% 36 75.95 1011.8
31 14:52 SW 19 16.09 Fair CLR 32.2 22.2 56% 36 75.95 1011.8
31 13:52 SW 15 16.09 Fair CLR 32.2 21.7 54% 36 75.95 1011.8
31 12:52 SW 20 16.09 A Few Clouds FEW120 31.1 21.7 31.1 24.4 57% 34 75.97 1012.2
31 11:52 SW 13 G 33 16.09 A Few Clouds FEW120 31.1 21.1 55% 34 76 1012.6
31 10:52 SW 20 16.09 Fair CLR 29.4 20 57% 31 75.97 1012.4
31 09:52 SW 17 G 37 16.09 Fair CLR 27.8 20 63% 29 75.97 1012.3
31 08:52 SW 15 G 31 16.09 Fair CLR 25.6 18.9 67% 27 75.95 1011.9
31 07:52 SW 22 G 37 16.09 Partly Cloudy SCT110 25 18.3 66% 26 75.92 1011.8
31 06:52 SW 22 G 33 16.09 Mostly Cloudy BKN100 24.4 17.8 25 23.3 67% 25 75.92 1011.6
31 05:52 S 17 16.09 Fair CLR 23.9 17.8 69% 25 75.92 1011.8
31 04:52 S 20 16.09 A Few Clouds FEW100 23.9 17.8 69% 25 75.92 1011.8
31 03:52 S 19 G 35 16.09 Fair CLR 24.4 17.8 67% 25 75.92 1011.8
31 02:52 S 17 16.09 Fair CLR 24.4 17.8 67% 25 75.92 1011.6
31 01:52 S 17 16.09 Fair CLR 24.4 18.3 69% 25 75.95 1012.1
31 00:52 S 19 G 35 16.09 Fair CLR 25 18.3 26.1 25 66% 26 75.97 1012.3
30 23:52 S 22 16.09 Fair CLR 25 20 74% 26 75.97 1012.2
30 22:52 S 15 16.09 Fair CLR 25 21.1 79% 26 76 1012.6
30 21:52 SE 15 16.09 Fair CLR 25.6 21.7 79% 27 76.02 1013.0
30 20:52 SE 19 16.09 Fair CLR 25.6 22.2 82% 27 76 1012.7
30 19:52 SE 15 16.09 Fair CLR 25.6 22.2 82% 27 75.97 1012.5
30 18:52 SE 13 16.09 Fair CLR 26.1 22.8 26.7 23.9 82% 28 76.02 1012.9
30 16:52 E 11 16.09 Fair CLR 25 22.2 85% 26 76.02 1013.3
30 15:52 Calm 16.09 Fair CLR 25.6 21.7 79% 27 76.07 1013.9
30 14:52 SW 7 16.09 A Few Clouds FEW120 24.4 21.7 85% 25 76.12 1014.4
30 13:52 S 7 16.09 Mostly Cloudy FEW045 SCT090 BKN110 25.6 20.6 74% 27 76.12 1014.3
30 12:52 Vrbl 7 16.09 Partly Cloudy SCT110 26.7 20 26.7 21.7 67% 28 76.1 1014.0 0.23
30 11:52 SW 13 16.09 Thunderstorm in Vicinity SCT120 25 18.9 69% 26 76.1 1014.0
30 10:52 S 28 G 41 16.09 Partly Cloudy FEW090 SCT110 23.9 18.3 71% 25 76.02 1013.3
30 09:52 S 20 16.09 Mostly Cloudy FEW070 BKN110 22.2 17.8 76% 76.05 1013.3 0.18 0.23
30 08:52 S 9 16.09 Thunderstorm in Vicinity Light Rain FEW075 BKN100 23.3 17.2 69% 76.02 1013.0 0.03
30 07:52 SW 19 G 37 16.09 Light Rain FEW033 SCT055 BKN110 22.2 17.2 73% 76 1012.7 0.03
30 06:52 S 17 16.09 Partly Cloudy FEW075 SCT110 22.8 17.2 23.9 22.2 71% 75.97 1012.5
30 05:52 SW 19 G 33 16.09 Mostly Cloudy BKN110 22.8 17.2 71% 75.95 1012.3
30 04:52 S 17 16.09 A Few Clouds FEW100 22.2 17.2 73% 75.97 1012.3
30 03:52 S 19 16.09 Overcast OVC110 22.2 17.2 73% 75.97 1012.5
30 02:52 S 20 G 35 16.09 Fair CLR 22.8 17.2 71% 75.97 1012.3
30 01:52 S 22 G 39 16.09 Fair CLR 23.9 17.2 66% 25 76 1012.8
30 00:52 S 26 G 39 16.09 Fair CLR 23.9 17.2 24.4 23.3 66% 25 76.02 1013.2
29 23:52 S 19 G 33 16.09 Fair CLR 23.3 17.8 71% 76.05 1013.5
Date Time (cdt) Wind (kph) Vis. (km) Weather Sky Cond. Air Dwpt Max. Min. Relative Humidity Wind Chill (°C) Heat Index (°C) altimeter (cm) sea level (mb) 1 hr 3 hr 6 hr
6 hour
Temperature (ºC) Pressure Precipitation (cm)